Terminal Aerodrome Forecast
Issued by NWS

Home | Current Version | Previous Version | Text Only | Print | Product List | Glossary On
Versions: 1 2 3 4 5 6 7 8 9 10 11 12 13 14 15 16 17 18 19
000
FTUS45 KPIH 210729 AAA
TAFSUN
TAF AMD
KSUN 210729Z 2107/2212 30006KT P6SM OVC010
     FM211000 32007KT P6SM SCT015 BKN050 OVC200
     FM211900 13006KT P6SM VCSH OVC035
     FM220400 VRB05KT P6SM -SHRA SCT015 OVC030
      AMD LTD TO CLD VIS AND WIND TIL 211400=

USA.gov is the U.S. government's official web portal to all federal, state and local government web resources and services.